createdAt,value
2022-08-01T00:00:06.527Z,19.02
2022-08-01T00:02:36.636Z,19.03
2022-08-01T00:05:03.558Z,19.04
2022-08-01T00:07:31.077Z,19.02
2022-08-01T00:09:57.697Z,18.98
2022-08-01T00:12:24.329Z,19.01
2022-08-01T00:14:50.972Z,19.01
2022-08-01T00:17:17.661Z,18.99
2022-08-01T00:19:44.251Z,18.96
2022-08-01T00:22:10.847Z,18.94
2022-08-01T00:24:37.545Z,18.91
2022-08-01T00:27:04.309Z,18.90
2022-08-01T00:30:11.811Z,18.88
2022-08-01T00:32:17.823Z,18.85
2022-08-01T00:34:44.502Z,18.79
2022-08-01T00:37:13.687Z,18.76
2022-08-01T00:39:43.132Z,18.69
2022-08-01T00:42:12.088Z,18.63
2022-08-01T00:44:39.970Z,18.59
2022-08-01T00:47:07.687Z,18.55
2022-08-01T00:49:34.646Z,18.47
2022-08-01T00:52:02.319Z,18.47
2022-08-01T00:54:29.507Z,18.50
2022-08-01T00:56:56.853Z,18.54
2022-08-01T00:59:25.832Z,18.54
2022-08-01T01:01:53.061Z,18.54
2022-08-01T01:04:20.675Z,18.46
2022-08-01T01:06:52.933Z,18.40
2022-08-01T01:09:25.513Z,18.31
2022-08-01T01:12:13.644Z,18.20
2022-08-01T01:14:52.924Z,18.13
2022-08-01T01:17:49.408Z,18.11
2022-08-01T01:20:17.316Z,18.06
2022-08-01T01:23:23.733Z,18.05
2022-08-01T01:26:24.488Z,18.04
2022-08-01T01:29:14.524Z,18.00
2022-08-01T01:31:56.696Z,18.01
2022-08-01T01:34:24.728Z,18.00
2022-08-01T01:36:55.750Z,17.99
2022-08-01T01:39:25.431Z,18.00
2022-08-01T01:41:56.158Z,18.01
2022-08-01T01:44:22.857Z,18.05
2022-08-01T01:46:58.969Z,18.03
2022-08-01T01:49:27.967Z,17.99
2022-08-01T01:52:02.455Z,17.96
2022-08-01T01:54:34.179Z,17.96
2022-08-01T01:57:02.963Z,17.95
2022-08-01T01:59:32.905Z,17.92
2022-08-01T02:02:06.033Z,17.91
2022-08-01T02:04:36.996Z,17.90
2022-08-01T02:07:04.438Z,17.91
2022-08-01T02:09:33.030Z,17.92
2022-08-01T02:12:13.859Z,17.95
2022-08-01T02:14:43.235Z,17.95
2022-08-01T02:17:16.570Z,17.94
2022-08-01T02:19:43.540Z,17.87
2022-08-01T02:22:15.932Z,17.86
2022-08-01T02:25:11.097Z,17.81
2022-08-01T02:27:40.769Z,17.75
2022-08-01T02:30:09.571Z,17.67
2022-08-01T02:32:41.043Z,17.61
2022-08-01T02:35:15.091Z,17.61
2022-08-01T02:37:46.957Z,17.57
2022-08-01T02:40:16.916Z,17.55
2022-08-01T02:42:47.562Z,17.52
2022-08-01T02:45:14.946Z,17.53
2022-08-01T02:47:44.448Z,17.50
2022-08-01T02:50:13.947Z,17.51
2022-08-01T02:52:42.805Z,17.47
2022-08-01T02:55:11.748Z,17.42
2022-08-01T02:57:47.307Z,17.41
2022-08-01T03:00:18.820Z,17.40
2022-08-01T03:02:49.549Z,17.38
2022-08-01T03:05:18.152Z,17.34
2022-08-01T03:07:46.141Z,17.33
2022-08-01T03:10:17.127Z,17.29
2022-08-01T03:12:46.419Z,17.26
2022-08-01T03:15:17.339Z,17.22
2022-08-01T03:17:46.784Z,17.19
2022-08-01T03:20:16.408Z,17.19
2022-08-01T03:22:45.863Z,17.18
2022-08-01T03:25:14.767Z,17.17
2022-08-01T03:27:44.386Z,17.17
2022-08-01T03:30:12.367Z,17.20
2022-08-01T03:32:39.720Z,17.22
2022-08-01T03:35:07.170Z,17.21
2022-08-01T03:38:13.198Z,17.18
2022-08-01T03:40:39.753Z,17.17
2022-08-01T03:43:21.305Z,17.17
2022-08-01T03:45:52.571Z,17.16
2022-08-01T03:48:23.632Z,17.18
2022-08-01T03:50:53.388Z,17.21
2022-08-01T03:53:24.311Z,17.22
2022-08-01T03:55:51.876Z,17.25
2022-08-01T03:58:18.929Z,17.28
2022-08-01T04:00:46.398Z,17.32
2022-08-01T04:03:13.844Z,17.32
2022-08-01T04:05:43.919Z,17.35
2022-08-01T04:08:10.595Z,17.33
2022-08-01T04:10:38.163Z,17.36
2022-08-01T04:13:04.773Z,17.35
2022-08-01T04:15:31.602Z,17.42
2022-08-01T04:17:58.232Z,17.51
2022-08-01T04:20:24.883Z,17.47
2022-08-01T04:22:51.565Z,17.50
2022-08-01T04:25:25.115Z,17.60
2022-08-01T04:27:54.203Z,17.70
2022-08-01T04:30:25.611Z,17.81
2022-08-01T04:32:55.570Z,17.91
2022-08-01T04:36:04.219Z,17.94
2022-08-01T04:38:11.614Z,17.98
2022-08-01T04:40:39.228Z,17.99
2022-08-01T04:43:06.886Z,18.07
2022-08-01T04:45:34.557Z,18.20
2022-08-01T04:48:01.512Z,18.25
2022-08-01T04:50:29.095Z,18.32
2022-08-01T04:52:55.738Z,18.39
2022-08-01T04:55:22.474Z,18.55
2022-08-01T04:57:49.366Z,18.67
2022-08-01T05:00:17.588Z,18.64
2022-08-01T05:02:44.301Z,18.76
2022-08-01T05:05:11.553Z,18.88
2022-08-01T05:07:45.015Z,18.92
2022-08-01T05:10:12.682Z,18.92
2022-08-01T05:12:39.324Z,19.07
2022-08-01T05:15:10.590Z,18.95
2022-08-01T05:17:43.751Z,19.05
2022-08-01T05:20:12.514Z,19.24
2022-08-01T05:22:39.499Z,19.29
2022-08-01T05:25:06.949Z,19.42
2022-08-01T05:27:33.922Z,19.50
2022-08-01T05:30:00.601Z,19.78
2022-08-01T05:32:28.743Z,19.91
2022-08-01T05:34:55.463Z,20.02
2022-08-01T05:37:22.055Z,19.99
2022-08-01T05:39:48.701Z,20.27
2022-08-01T05:42:15.737Z,20.20
2022-08-01T05:44:42.392Z,20.31
2022-08-01T05:47:08.989Z,20.39
2022-08-01T05:49:35.688Z,20.49
2022-08-01T05:52:03.283Z,20.72
2022-08-01T05:54:30.435Z,20.62
2022-08-01T05:57:00.577Z,20.85
2022-08-01T05:59:27.376Z,20.88
2022-08-01T06:01:54.092Z,21.01
2022-08-01T06:04:20.902Z,21.10
2022-08-01T06:06:47.565Z,20.99
2022-08-01T06:09:14.203Z,21.00
2022-08-01T06:11:40.982Z,21.18
2022-08-01T06:14:07.713Z,21.64
2022-08-01T06:16:34.367Z,21.82
2022-08-01T06:19:01.543Z,21.99
2022-08-01T06:21:28.250Z,22.43
2022-08-01T06:23:54.899Z,22.62
2022-08-01T06:26:21.696Z,22.73
2022-08-01T06:28:48.299Z,22.55
2022-08-01T06:31:15.760Z,22.84
2022-08-01T06:33:42.500Z,23.25
2022-08-01T06:36:10.195Z,23.20
2022-08-01T06:38:36.965Z,23.27
2022-08-01T06:41:03.664Z,23.74
2022-08-01T06:43:30.669Z,23.72
2022-08-01T06:45:57.308Z,23.46
2022-08-01T06:48:24.023Z,23.22
2022-08-01T06:51:08.767Z,23.11
2022-08-01T06:53:37.427Z,23.42
2022-08-01T06:56:05.381Z,23.71
2022-08-01T06:58:32.296Z,23.72
2022-08-01T07:00:59.660Z,24.01
2022-08-01T07:03:27.897Z,24.03
2022-08-01T07:06:13.514Z,23.92
2022-08-01T07:08:41.872Z,23.99
2022-08-01T07:11:08.558Z,23.86
2022-08-01T07:13:43.943Z,24.43
2022-08-01T07:16:13.551Z,24.65
2022-08-01T07:18:40.662Z,24.87
2022-08-01T07:21:38.166Z,25.24
2022-08-01T07:23:55.807Z,25.52
2022-08-01T07:26:22.686Z,25.24
2022-08-01T07:28:49.323Z,24.67
2022-08-01T07:31:16.108Z,24.82
2022-08-01T07:33:48.372Z,25.08
2022-08-01T07:36:16.715Z,24.46
2022-08-01T07:38:43.678Z,24.60
2022-08-01T07:41:10.459Z,25.03
2022-08-01T07:43:37.300Z,25.11
2022-08-01T07:46:04.939Z,24.98
2022-08-01T07:48:32.224Z,25.50
2022-08-01T07:50:58.903Z,26.13
2022-08-01T07:53:25.711Z,26.10
2022-08-01T07:55:52.563Z,26.36
2022-08-01T07:58:19.281Z,26.09
2022-08-01T08:00:45.956Z,25.76
2022-08-01T08:03:12.606Z,26.13
2022-08-01T08:05:57.818Z,26.63
2022-08-01T08:08:26.036Z,27.19
2022-08-01T08:10:52.736Z,26.95
2022-08-01T08:13:19.317Z,27.14
2022-08-01T08:15:48.446Z,26.99
2022-08-01T08:18:15.878Z,26.55
2022-08-01T08:20:42.589Z,26.85
2022-08-01T08:23:42.794Z,26.78
2022-08-01T08:26:13.560Z,26.13
2022-08-01T08:28:40.836Z,26.34
2022-08-01T08:31:25.382Z,26.48
2022-08-01T08:33:55.208Z,26.52
2022-08-01T08:36:22.054Z,26.91
2022-08-01T08:38:57.785Z,27.12
2022-08-01T08:41:24.532Z,27.41
2022-08-01T08:43:51.221Z,27.28
2022-08-01T08:46:19.251Z,26.94
2022-08-01T08:48:56.810Z,26.95
2022-08-01T08:51:27.082Z,26.90
2022-08-01T08:53:56.634Z,27.12
2022-08-01T08:56:25.651Z,27.15
2022-08-01T08:58:55.398Z,27.00
2022-08-01T09:01:22.757Z,27.06
2022-08-01T09:03:49.976Z,27.60
2022-08-01T09:06:17.892Z,27.78
2022-08-01T09:08:44.541Z,28.25
2022-08-01T09:11:13.903Z,28.61
2022-08-01T09:14:04.494Z,28.47
2022-08-01T09:16:32.689Z,29.36
2022-08-01T09:19:39.514Z,29.68
2022-08-01T09:22:09.751Z,29.07
2022-08-01T09:24:37.519Z,29.12
2022-08-01T09:27:25.169Z,29.21
2022-08-01T09:30:00.759Z,29.92
2022-08-01T09:32:35.067Z,29.80
2022-08-01T09:35:29.788Z,30.21
2022-08-01T09:38:23.507Z,30.08
2022-08-01T09:40:50.325Z,30.43
2022-08-01T09:43:17.966Z,30.46
2022-08-01T09:45:50.643Z,30.18
2022-08-01T09:48:21.015Z,29.46
2022-08-01T09:50:52.139Z,30.51
2022-08-01T09:53:30.382Z,31.14
2022-08-01T09:56:10.277Z,31.33
2022-08-01T09:59:01.483Z,30.94
2022-08-01T10:01:50.455Z,30.82
2022-08-01T10:04:20.812Z,30.93
2022-08-01T10:06:55.841Z,30.32
2022-08-01T10:09:39.689Z,29.92
2022-08-01T10:12:08.814Z,29.75
2022-08-01T10:14:37.144Z,30.10
2022-08-01T10:17:07.912Z,30.33
2022-08-01T10:19:36.632Z,30.41
2022-08-01T10:22:08.382Z,30.71
2022-08-01T10:24:42.857Z,30.87
2022-08-01T10:27:12.340Z,31.05
2022-08-01T10:30:19.799Z,30.90
2022-08-01T10:32:54.878Z,30.83
2022-08-01T10:35:45.742Z,31.41
2022-08-01T10:38:10.730Z,31.57
2022-08-01T10:40:41.250Z,31.95
2022-08-01T10:43:10.602Z,32.07
2022-08-01T10:45:37.668Z,32.33
2022-08-01T10:48:10.819Z,32.15
2022-08-01T10:50:48.475Z,32.32
2022-08-01T10:53:24.231Z,32.01
2022-08-01T10:56:02.330Z,31.79
2022-08-01T10:58:42.955Z,31.84
2022-08-01T11:01:28.004Z,31.74
2022-08-01T11:04:07.012Z,32.09
2022-08-01T11:06:33.589Z,32.08
2022-08-01T11:09:05.925Z,32.63
2022-08-01T11:11:35.171Z,33.17
2022-08-01T11:14:10.525Z,32.72
2022-08-01T11:16:39.054Z,32.65
2022-08-01T11:19:09.226Z,33.04
2022-08-01T11:21:56.816Z,32.58
2022-08-01T11:24:52.283Z,32.88
2022-08-01T11:27:24.749Z,33.29
2022-08-01T11:30:13.381Z,33.30
2022-08-01T11:33:11.312Z,33.74
2022-08-01T11:35:59.040Z,33.79
2022-08-01T11:38:31.082Z,33.11
2022-08-01T11:41:23.616Z,33.47
2022-08-01T11:44:09.193Z,34.07
2022-08-01T11:46:51.317Z,33.88
2022-08-01T11:49:55.708Z,33.77
2022-08-01T11:52:30.865Z,34.18
2022-08-01T11:54:59.054Z,34.08
2022-08-01T11:57:38.192Z,33.99
2022-08-01T12:00:17.862Z,34.39
2022-08-01T12:02:46.792Z,34.32
2022-08-01T12:05:17.626Z,33.55
2022-08-01T12:07:46.866Z,32.75
2022-08-01T12:10:16.711Z,33.31
2022-08-01T12:12:49.414Z,33.04
2022-08-01T12:15:17.362Z,33.87
2022-08-01T12:17:57.449Z,34.37
2022-08-01T12:20:30.061Z,35.37
2022-08-01T12:22:59.461Z,35.59
2022-08-01T12:25:26.241Z,35.81
2022-08-01T12:27:56.565Z,34.50
2022-08-01T12:30:25.030Z,34.10
2022-08-01T12:32:53.257Z,34.09
2022-08-01T12:35:27.430Z,34.13
2022-08-01T12:37:57.099Z,34.67
2022-08-01T12:40:25.179Z,34.62
2022-08-01T12:42:54.230Z,34.43
2022-08-01T12:45:28.487Z,34.02
2022-08-01T12:47:56.324Z,34.34
2022-08-01T12:50:26.460Z,34.60
2022-08-01T12:52:53.418Z,35.68
2022-08-01T12:55:21.997Z,35.88
2022-08-01T12:57:52.655Z,36.36
2022-08-01T13:00:19.332Z,36.18
2022-08-01T13:02:48.429Z,35.79
2022-08-01T13:05:16.336Z,35.01
2022-08-01T13:07:48.545Z,35.30
2022-08-01T13:10:24.638Z,35.14
2022-08-01T13:12:57.462Z,35.85
2022-08-01T13:15:33.054Z,35.38
2022-08-01T13:18:02.230Z,35.72
2022-08-01T13:20:34.980Z,35.71
2022-08-01T13:23:21.337Z,35.93
2022-08-01T13:26:03.348Z,35.83
2022-08-01T13:28:31.720Z,35.97
2022-08-01T13:31:04.457Z,35.87
2022-08-01T13:33:43.330Z,35.67
2022-08-01T13:36:09.992Z,36.28
2022-08-01T13:38:55.007Z,36.32
2022-08-01T13:41:21.705Z,35.98
2022-08-01T13:43:58.901Z,36.25
2022-08-01T13:46:26.049Z,34.84
2022-08-01T13:48:56.205Z,34.61
2022-08-01T13:51:22.951Z,34.43
2022-08-01T13:53:49.663Z,34.14
2022-08-01T13:56:18.396Z,34.26
2022-08-01T13:58:45.600Z,35.04
2022-08-01T14:01:12.317Z,35.54
2022-08-01T14:03:39.110Z,35.21
2022-08-01T14:06:06.008Z,35.33
2022-08-01T14:08:32.660Z,33.74
2022-08-01T14:10:59.802Z,34.04
2022-08-01T14:13:32.174Z,34.73
2022-08-01T14:16:03.257Z,35.20
2022-08-01T14:18:29.902Z,35.79
2022-08-01T14:20:59.285Z,36.35
2022-08-01T14:23:32.474Z,36.26
2022-08-01T14:26:04.364Z,35.94
2022-08-01T14:28:34.418Z,36.26
2022-08-01T14:31:01.491Z,36.55
2022-08-01T14:33:29.295Z,35.86
2022-08-01T14:36:06.026Z,36.14
2022-08-01T14:38:46.366Z,36.80
2022-08-01T14:41:14.304Z,36.69
2022-08-01T14:43:40.906Z,35.96
2022-08-01T14:46:09.095Z,35.76
2022-08-01T14:48:35.713Z,35.43
2022-08-01T14:51:03.983Z,35.33
2022-08-01T14:53:31.740Z,35.73
2022-08-01T14:56:01.074Z,35.40
2022-08-01T14:58:27.745Z,35.79
2022-08-01T15:00:58.465Z,35.30
2022-08-01T15:03:26.004Z,34.93
2022-08-01T15:05:52.730Z,34.19
2022-08-01T15:08:19.339Z,33.66
2022-08-01T15:10:45.946Z,33.26
2022-08-01T15:13:12.565Z,33.14
2022-08-01T15:15:39.135Z,32.39
2022-08-01T15:18:06.087Z,32.05
2022-08-01T15:20:33.886Z,32.90
2022-08-01T15:23:00.842Z,33.68
2022-08-01T15:25:41.317Z,33.77
2022-08-01T15:28:10.257Z,33.11
2022-08-01T15:30:36.882Z,33.52
2022-08-01T15:33:03.752Z,33.53
2022-08-01T15:35:30.407Z,32.73
2022-08-01T15:37:57.045Z,32.62
2022-08-01T15:40:23.710Z,32.28
2022-08-01T15:42:50.495Z,31.92
2022-08-01T15:45:45.852Z,31.81
2022-08-01T15:48:08.478Z,31.38
2022-08-01T15:50:35.491Z,31.33
2022-08-01T15:53:02.229Z,31.21
2022-08-01T15:55:28.922Z,30.90
2022-08-01T15:57:55.937Z,31.93
2022-08-01T16:00:22.831Z,31.64
2022-08-01T16:02:49.440Z,31.70
2022-08-01T16:05:17.201Z,32.14
2022-08-01T16:07:59.399Z,32.72
2022-08-01T16:10:29.152Z,32.49
2022-08-01T16:12:55.873Z,32.50
2022-08-01T16:15:22.597Z,32.55
2022-08-01T16:18:03.478Z,32.40
2022-08-01T16:20:30.083Z,31.74
2022-08-01T16:22:56.765Z,31.42
2022-08-01T16:25:23.587Z,31.17
2022-08-01T16:27:50.362Z,31.13
2022-08-01T16:30:17.186Z,30.83
2022-08-01T16:32:48.791Z,30.67
2022-08-01T16:35:20.457Z,30.46
2022-08-01T16:37:47.156Z,30.46
2022-08-01T16:40:13.800Z,30.26
2022-08-01T16:42:40.493Z,30.19
2022-08-01T16:45:13.721Z,29.99
2022-08-01T16:47:41.428Z,29.94
2022-08-01T16:50:09.623Z,29.67
2022-08-01T16:52:41.926Z,29.49
2022-08-01T16:55:11.445Z,29.42
2022-08-01T16:57:38.744Z,29.34
2022-08-01T17:00:12.088Z,29.29
2022-08-01T17:02:48.418Z,29.27
2022-08-01T17:05:16.180Z,29.15
2022-08-01T17:07:42.845Z,29.11
2022-08-01T17:10:10.387Z,29.16
2022-08-01T17:12:37.045Z,29.04
2022-08-01T17:15:04.274Z,28.95
2022-08-01T17:17:30.975Z,28.92
2022-08-01T17:19:57.636Z,28.90
2022-08-01T17:22:24.258Z,28.91
2022-08-01T17:24:53.563Z,28.75
2022-08-01T17:27:20.543Z,28.73
2022-08-01T17:29:47.143Z,28.69
2022-08-01T17:32:14.219Z,28.63
2022-08-01T17:34:42.565Z,28.49
2022-08-01T17:37:10.107Z,28.45
2022-08-01T17:39:39.636Z,28.31
2022-08-01T17:42:10.930Z,28.27
2022-08-01T17:44:38.147Z,28.15
2022-08-01T17:47:06.374Z,28.13
2022-08-01T17:49:53.966Z,28.03
2022-08-01T17:52:20.231Z,27.90
2022-08-01T17:54:47.443Z,27.86
2022-08-01T17:57:14.104Z,27.80
2022-08-01T17:59:40.812Z,27.78
2022-08-01T18:02:07.420Z,27.72
2022-08-01T18:04:35.735Z,27.65
2022-08-01T18:07:11.318Z,27.63
2022-08-01T18:09:43.890Z,27.60
2022-08-01T18:12:13.453Z,27.52
2022-08-01T18:14:41.276Z,27.48
2022-08-01T18:17:11.766Z,27.48
2022-08-01T18:19:39.519Z,27.47
2022-08-01T18:22:19.506Z,27.43
2022-08-01T18:24:54.992Z,27.42
2022-08-01T18:27:21.615Z,27.40
2022-08-01T18:29:50.051Z,27.29
2022-08-01T18:32:18.082Z,27.19
2022-08-01T18:34:44.677Z,27.14
2022-08-01T18:37:14.145Z,27.04
2022-08-01T18:39:41.567Z,27.18
2022-08-01T18:42:10.521Z,27.26
2022-08-01T18:44:37.229Z,27.25
2022-08-01T18:47:04.959Z,27.20
2022-08-01T18:49:31.998Z,27.11
2022-08-01T18:51:59.032Z,27.11
2022-08-01T18:54:27.261Z,27.14
2022-08-01T18:56:54.123Z,27.02
2022-08-01T18:59:21.618Z,26.89
2022-08-01T19:01:48.516Z,26.81
2022-08-01T19:04:15.281Z,26.70
2022-08-01T19:06:42.355Z,26.53
2022-08-01T19:09:09.350Z,26.46
2022-08-01T19:11:36.484Z,26.44
2022-08-01T19:14:03.776Z,26.41
2022-08-01T19:16:31.115Z,26.56
2022-08-01T19:18:59.042Z,26.64
2022-08-01T19:21:25.991Z,26.71
2022-08-01T19:24:10.919Z,26.77
2022-08-01T19:26:40.308Z,26.79
2022-08-01T19:29:33.014Z,26.80
2022-08-01T19:32:05.625Z,26.81
2022-08-01T19:34:35.646Z,26.78
2022-08-01T19:37:03.724Z,26.76
2022-08-01T19:39:31.055Z,26.71
2022-08-01T19:41:59.423Z,26.67
2022-08-01T19:44:28.801Z,26.61
2022-08-01T19:46:55.913Z,26.56
2022-08-01T19:49:23.485Z,26.46
2022-08-01T19:51:53.014Z,26.37
2022-08-01T19:54:21.412Z,26.33
2022-08-01T19:56:49.105Z,26.34
2022-08-01T19:59:23.843Z,26.32
2022-08-01T20:01:52.577Z,26.29
2022-08-01T20:04:19.847Z,26.28
2022-08-01T20:06:47.825Z,26.28
2022-08-01T20:09:16.013Z,26.27
2022-08-01T20:11:47.930Z,26.26
2022-08-01T20:14:18.302Z,26.25
2022-08-01T20:16:45.935Z,26.24
2022-08-01T20:19:12.940Z,26.22
2022-08-01T20:21:43.826Z,26.16
2022-08-01T20:24:35.278Z,26.12
2022-08-01T20:27:08.242Z,26.00
2022-08-01T20:29:36.588Z,25.92
2022-08-01T20:32:04.399Z,25.92
2022-08-01T20:34:37.167Z,25.84
2022-08-01T20:37:07.020Z,25.80
2022-08-01T20:39:36.341Z,25.60
2022-08-01T20:42:04.107Z,25.43
2022-08-01T20:44:34.464Z,25.33
2022-08-01T20:47:05.125Z,25.20
2022-08-01T20:49:33.250Z,25.10
2022-08-01T20:52:10.943Z,24.98
2022-08-01T20:54:38.164Z,24.88
2022-08-01T20:57:09.152Z,24.80
2022-08-01T20:59:56.555Z,24.70
2022-08-01T21:02:42.935Z,24.59
2022-08-01T21:05:11.562Z,24.52
2022-08-01T21:07:50.565Z,24.43
2022-08-01T21:10:21.613Z,24.35
2022-08-01T21:12:53.435Z,24.46
2022-08-01T21:15:33.748Z,24.58
2022-08-01T21:18:16.387Z,24.54
2022-08-01T21:20:48.154Z,24.47
2022-08-01T21:23:25.141Z,24.46
2022-08-01T21:25:52.672Z,24.45
2022-08-01T21:28:21.354Z,24.45
2022-08-01T21:30:53.659Z,24.31
2022-08-01T21:33:24.935Z,24.33
2022-08-01T21:36:00.107Z,24.20
2022-08-01T21:38:31.372Z,24.10
2022-08-01T21:41:03.172Z,24.15
2022-08-01T21:43:32.518Z,24.11
2022-08-01T21:46:00.296Z,24.03
2022-08-01T21:48:30.745Z,24.04
2022-08-01T21:51:00.305Z,24.05
2022-08-01T21:53:43.544Z,24.08
2022-08-01T21:56:35.480Z,24.02
2022-08-01T21:59:07.668Z,23.95
2022-08-01T22:02:01.772Z,24.06
2022-08-01T22:04:39.446Z,24.19
2022-08-01T22:07:10.446Z,24.29
2022-08-01T22:09:39.750Z,24.31
2022-08-01T22:12:07.642Z,24.36
2022-08-01T22:14:42.055Z,24.35
2022-08-01T22:17:11.846Z,24.37
2022-08-01T22:19:45.484Z,24.47
2022-08-01T22:22:44.570Z,24.49
2022-08-01T22:25:01.657Z,24.53
2022-08-01T22:28:06.481Z,24.54
2022-08-01T22:30:17.656Z,24.50
2022-08-01T22:32:45.937Z,24.46
2022-08-01T22:35:33.425Z,24.49
2022-08-01T22:38:00.070Z,24.57
2022-08-01T22:40:28.870Z,24.57
2022-08-01T22:42:59.912Z,24.52
2022-08-01T22:45:51.563Z,24.34
2022-08-01T22:48:32.759Z,24.17
2022-08-01T22:51:06.983Z,24.12
2022-08-01T22:53:48.176Z,24.19
2022-08-01T22:56:15.832Z,24.21
2022-08-01T22:58:44.393Z,24.27
2022-08-01T23:01:21.308Z,24.22
2022-08-01T23:03:51.630Z,24.31
2022-08-01T23:06:25.867Z,24.32
2022-08-01T23:08:55.723Z,24.43
2022-08-01T23:11:23.568Z,24.45
2022-08-01T23:13:53.676Z,24.47
2022-08-01T23:16:21.839Z,24.45
2022-08-01T23:18:49.298Z,24.46
2022-08-01T23:21:16.835Z,24.43
2022-08-01T23:23:45.935Z,24.40
2022-08-01T23:26:15.494Z,24.36
2022-08-01T23:28:43.530Z,24.35
2022-08-01T23:31:11.738Z,24.33
2022-08-01T23:33:39.085Z,24.44
2022-08-01T23:36:06.160Z,24.47
2022-08-01T23:38:32.816Z,24.44
2022-08-01T23:40:59.471Z,24.46
2022-08-01T23:43:26.143Z,24.46
2022-08-01T23:46:04.116Z,24.32
2022-08-01T23:48:36.103Z,24.30
2022-08-01T23:51:04.309Z,24.36
2022-08-01T23:53:31.468Z,24.39
2022-08-01T23:55:59.105Z,24.40
2022-08-01T23:58:29.681Z,24.41
